Time;durP1;ratioP1;P1;durP2;ratioP2;P2;SDS_P1;SDS_P2;PMS_P1;PMS_P2;Temp;Humidity;BMP_temperature;BMP_pressure;BME280_temperature;BME280_humidity;BME280_pressure;Samples;Min_cycle;Max_cycle;Signal;HPM_P1;HPM_P2
2022/03/31 00:00:31;;;;;;;2.22;1.00;;;2.90;99.90;;;;;;5079108;28;20813;-40
2022/03/31 00:02:58;;;;;;;5.38;1.40;;;2.90;99.90;;;;;;5079294;28;20047;-38
2022/03/31 00:05:24;;;;;;;5.40;1.20;;;2.80;99.90;;;;;;5076563;28;20126;-38
2022/03/31 00:07:55;;;;;;;5.53;1.27;;;2.90;99.90;;;;;;5078869;28;20047;-38
2022/03/31 00:10:36;;;;;;;3.88;1.05;;;2.90;99.90;;;;;;5059351;28;20052;-38
2022/03/31 00:13:04;;;;;;;3.25;1.00;;;2.90;99.90;;;;;;5076975;28;20056;-39
2022/03/31 00:15:31;;;;;;;3.15;1.23;;;2.90;99.90;;;;;;5078616;28;20044;-38
2022/03/31 00:17:59;;;;;;;5.47;1.10;;;2.90;99.90;;;;;;5076068;28;20083;-39
2022/03/31 00:20:26;;;;;;;5.97;1.38;;;2.80;99.90;;;;;;5077777;28;20055;-39
2022/03/31 00:22:52;;;;;;;4.35;1.27;;;2.80;99.90;;;;;;5078291;28;20545;-39
2022/03/31 00:25:18;;;;;;;5.07;1.60;;;2.70;99.90;;;;;;5055083;28;20135;-38
2022/03/31 00:27:44;;;;;;;6.05;1.40;;;2.70;99.90;;;;;;5053363;28;20356;-39
2022/03/31 00:30:12;;;;;;;3.00;1.20;;;2.60;99.90;;;;;;5081222;28;20071;-38
2022/03/31 00:32:38;;;;;;;5.20;1.33;;;2.60;99.90;;;;;;5082121;28;20036;-38
2022/03/31 00:35:06;;;;;;;7.47;1.33;;;2.60;99.90;;;;;;5082188;28;20050;-39
2022/03/31 00:37:31;;;;;;;6.88;1.70;;;2.60;99.90;;;;;;5077486;28;20165;-39
2022/03/31 00:39:57;;;;;;;4.60;1.20;;;2.60;99.90;;;;;;5051087;28;20049;-39
2022/03/31 00:42:24;;;;;;;2.28;1.10;;;2.60;99.90;;;;;;5076912;28;20048;-39
2022/03/31 00:44:50;;;;;;;4.63;2.00;;;2.60;99.90;;;;;;5071500;28;20055;-39
2022/03/31 00:47:18;;;;;;;6.70;1.30;;;2.50;99.90;;;;;;5062304;28;20221;-39
2022/03/31 00:49:44;;;;;;;3.75;1.30;;;2.60;99.90;;;;;;5081023;28;20075;-38
2022/03/31 00:52:12;;;;;;;7.00;1.58;;;2.60;99.90;;;;;;5082552;28;20052;-39
2022/03/31 00:54:40;;;;;;;4.65;1.02;;;2.60;99.90;;;;;;5082382;28;20515;-38
2022/03/31 00:57:10;;;;;;;3.95;1.30;;;2.60;99.90;;;;;;5061920;28;20517;-40
2022/03/31 00:59:36;;;;;;;5.38;1.25;;;2.60;99.90;;;;;;5081452;28;20048;-39
2022/03/31 01:02:05;;;;;;;6.43;1.30;;;2.60;99.90;;;;;;5082918;28;20051;-41
2022/03/31 01:04:34;;;;;;;5.60;1.50;;;2.60;99.90;;;;;;5083532;28;20054;-39
2022/03/31 01:07:00;;;;;;;3.05;1.25;;;2.60;99.90;;;;;;5064557;28;20366;-40
2022/03/31 01:09:25;;;;;;;5.45;1.50;;;2.60;99.90;;;;;;5083004;28;20108;-40
2022/03/31 01:11:51;;;;;;;4.63;1.58;;;2.70;99.90;;;;;;5081649;28;20474;-39
2022/03/31 01:14:17;;;;;;;5.70;1.38;;;2.70;99.90;;;;;;5081617;28;20048;-38
2022/03/31 01:16:43;;;;;;;4.47;1.20;;;2.80;99.90;;;;;;5079935;28;20048;-39
2022/03/31 01:19:14;;;;;;;3.67;1.17;;;2.80;99.90;;;;;;5081643;28;20151;-38
2022/03/31 01:21:43;;;;;;;5.22;1.35;;;2.80;99.90;;;;;;5080658;28;20410;-39
2022/03/31 01:24:14;;;;;;;2.58;1.25;;;2.80;99.90;;;;;;5081287;28;20074;-38
2022/03/31 01:26:40;;;;;;;3.67;1.13;;;2.80;99.90;;;;;;5079811;28;20051;-39
2022/03/31 01:29:08;;;;;;;6.30;2.80;;;2.80;99.90;;;;;;5079918;28;20056;-39
2022/03/31 01:31:37;;;;;;;6.70;1.58;;;2.80;99.90;;;;;;5080475;28;20458;-39
2022/03/31 01:34:04;;;;;;;3.78;1.30;;;2.90;99.90;;;;;;5062606;28;20391;-39
2022/03/31 01:36:30;;;;;;;3.95;1.30;;;2.80;99.90;;;;;;5081198;28;20055;-38
2022/03/31 01:38:56;;;;;;;4.40;1.60;;;2.80;99.90;;;;;;5080876;28;20040;-39
2022/03/31 01:41:22;;;;;;;7.70;1.58;;;2.80;99.90;;;;;;5079964;28;20443;-39
2022/03/31 01:43:50;;;;;;;4.85;1.63;;;2.80;99.90;;;;;;5068677;28;20466;-39
2022/03/31 01:46:16;;;;;;;5.75;1.77;;;2.80;99.90;;;;;;5081036;28;20277;-39
2022/03/31 01:48:42;;;;;;;4.88;1.60;;;2.80;99.90;;;;;;5066795;28;20044;-39
2022/03/31 01:51:08;;;;;;;5.25;1.48;;;2.80;99.90;;;;;;5080716;28;20048;-38
2022/03/31 01:53:36;;;;;;;5.22;1.50;;;2.80;99.90;;;;;;5080958;28;20048;-39
2022/03/31 01:56:03;;;;;;;4.82;1.67;;;2.90;99.90;;;;;;5080393;28;20134;-39
2022/03/31 01:58:29;;;;;;;3.72;1.30;;;2.90;99.90;;;;;;5079954;28;20043;-38
2022/03/31 02:00:55;;;;;;;5.45;1.50;;;2.90;99.90;;;;;;5081297;28;20043;-40
2022/03/31 02:03:22;;;;;;;5.85;1.70;;;2.90;99.90;;;;;;5080071;28;20524;-42
2022/03/31 02:05:50;;;;;;;6.30;1.70;;;2.90;99.90;;;;;;5080899;28;20202;-38
2022/03/31 02:08:20;;;;;;;4.32;1.90;;;2.90;99.90;;;;;;5078872;28;20109;-38
2022/03/31 02:10:45;;;;;;;6.43;1.92;;;2.90;99.90;;;;;;5081000;28;20052;-39
2022/03/31 02:13:13;;;;;;;3.90;2.25;;;2.80;99.90;;;;;;5081568;28;20125;-40
2022/03/31 02:15:38;;;;;;;3.28;1.40;;;2.80;99.90;;;;;;5084892;28;20052;-38
2022/03/31 02:18:04;;;;;;;5.95;1.67;;;2.70;99.90;;;;;;5081774;28;20053;-43
2022/03/31 02:20:32;;;;;;;5.68;1.95;;;2.70;99.90;;;;;;5080478;28;20044;-43
2022/03/31 02:23:01;;;;;;;7.38;1.88;;;2.80;99.90;;;;;;5061278;28;20445;-39
2022/03/31 02:25:29;;;;;;;6.25;1.92;;;2.80;99.90;;;;;;5081085;28;20039;-39
2022/03/31 02:27:55;;;;;;;6.03;2.10;;;2.90;99.90;;;;;;5061260;28;20059;-39
2022/03/31 02:30:23;;;;;;;7.78;2.28;;;2.90;99.90;;;;;;5058773;28;20052;-38
2022/03/31 02:32:49;;;;;;;7.72;2.03;;;2.90;99.90;;;;;;5058479;28;20488;-39
2022/03/31 02:35:17;;;;;;;5.65;1.88;;;2.90;99.90;;;;;;5060567;28;20064;-39
2022/03/31 02:37:42;;;;;;;7.45;1.88;;;2.90;99.90;;;;;;5079647;28;20052;-39
2022/03/31 02:40:09;;;;;;;7.60;3.13;;;2.90;99.90;;;;;;5079574;28;20600;-39
2022/03/31 02:42:35;;;;;;;8.88;2.13;;;2.80;99.90;;;;;;5079241;28;20619;-39
2022/03/31 02:45:05;;;;;;;9.38;2.60;;;2.80;99.90;;;;;;5080495;28;20445;-39
2022/03/31 02:47:34;;;;;;;8.45;2.00;;;2.80;99.90;;;;;;5079875;28;20051;-39
2022/03/31 02:49:59;;;;;;;5.45;2.30;;;2.80;99.90;;;;;;5079507;28;20044;-38
2022/03/31 02:52:25;;;;;;;9.30;2.50;;;2.70;99.90;;;;;;5065745;28;20107;-39
2022/03/31 02:57:36;;;;;;;9.02;2.08;;;2.70;99.90;;;;;;5067730;28;20121;-38
2022/03/31 03:00:03;;;;;;;9.45;2.95;;;2.70;99.90;;;;;;5078042;28;20047;-38
2022/03/31 03:02:29;;;;;;;7.80;1.98;;;2.70;99.90;;;;;;5079997;28;20087;-38
2022/03/31 03:04:55;;;;;;;6.80;1.95;;;2.70;99.90;;;;;;5079354;28;20575;-39
2022/03/31 03:07:21;;;;;;;4.50;1.80;;;2.70;99.90;;;;;;5080014;28;20056;-39
2022/03/31 03:09:47;;;;;;;5.30;2.03;;;2.70;99.90;;;;;;5077495;28;20052;-39
2022/03/31 03:12:12;;;;;;;10.18;2.90;;;2.70;99.90;;;;;;5079009;28;20055;-40
2022/03/31 03:14:38;;;;;;;5.90;2.20;;;2.70;99.90;;;;;;5078915;28;20047;-39
2022/03/31 03:17:04;;;;;;;7.53;2.35;;;2.70;99.90;;;;;;5078646;28;20048;-39
2022/03/31 03:19:31;;;;;;;5.03;1.90;;;2.70;99.90;;;;;;5079221;28;20044;-39
2022/03/31 03:21:57;;;;;;;11.15;3.03;;;2.70;99.90;;;;;;5070901;28;20052;-39
2022/03/31 03:24:23;;;;;;;6.78;2.30;;;2.70;99.90;;;;;;5082041;28;20070;-39
2022/03/31 03:26:48;;;;;;;7.25;2.67;;;2.70;99.90;;;;;;5077200;28;20044;-39
2022/03/31 03:29:15;;;;;;;8.13;2.72;;;2.70;99.90;;;;;;5079315;28;20497;-44
2022/03/31 03:31:41;;;;;;;7.75;3.08;;;2.80;99.90;;;;;;5059837;28;20043;-39
2022/03/31 03:34:07;;;;;;;3.72;2.70;;;2.80;99.90;;;;;;5079283;28;20117;-39
2022/03/31 03:36:33;;;;;;;8.40;3.60;;;2.70;99.90;;;;;;5078944;28;20055;-39
2022/03/31 03:38:59;;;;;;;6.90;3.15;;;2.70;99.90;;;;;;5078860;28;20055;-38
2022/03/31 03:41:25;;;;;;;10.20;3.95;;;2.70;99.90;;;;;;5077794;28;20055;-39
2022/03/31 03:43:51;;;;;;;10.20;3.30;;;2.70;99.90;;;;;;5066702;28;20044;-38
2022/03/31 03:46:16;;;;;;;6.97;4.03;;;2.60;99.90;;;;;;5078642;28;20048;-37
2022/03/31 03:48:42;;;;;;;6.05;3.40;;;2.50;99.90;;;;;;5079853;28;20051;-41
2022/03/31 03:51:10;;;;;;;8.93;3.55;;;2.60;99.90;;;;;;5071996;28;20367;-38
2022/03/31 03:53:35;;;;;;;7.72;4.55;;;2.50;99.90;;;;;;5075174;28;20094;-39
2022/03/31 03:56:01;;;;;;;5.45;4.00;;;2.50;99.90;;;;;;5079467;28;20122;-38
2022/03/31 03:58:27;;;;;;;8.85;4.20;;;2.50;99.90;;;;;;5078292;28;20231;-39
2022/03/31 04:00:53;;;;;;;7.68;4.78;;;2.40;99.90;;;;;;5078937;28;20498;-39
2022/03/31 04:03:19;;;;;;;9.02;5.03;;;2.40;99.90;;;;;;5081853;28;20051;-39
2022/03/31 04:05:45;;;;;;;7.60;4.50;;;2.40;99.90;;;;;;5082376;28;20047;-39
2022/03/31 04:08:14;;;;;;;7.43;4.50;;;2.40;99.90;;;;;;5082698;28;20040;-39
2022/03/31 04:10:39;;;;;;;4.90;3.17;;;2.40;99.90;;;;;;5083776;28;20048;-39
2022/03/31 04:13:05;;;;;;;5.47;3.17;;;2.30;99.90;;;;;;5082964;28;20068;-39
2022/03/31 04:15:31;;;;;;;5.18;3.80;;;2.30;99.90;;;;;;5083575;28;20411;-38
2022/03/31 04:17:57;;;;;;;6.57;3.95;;;2.30;99.90;;;;;;5081605;28;20063;-39
2022/03/31 04:20:22;;;;;;;7.90;3.85;;;2.30;99.90;;;;;;5073617;28;20039;-38
2022/03/31 04:22:53;;;;;;;5.65;3.70;;;2.40;99.90;;;;;;5078768;28;20063;-39
2022/03/31 04:25:19;;;;;;;7.25;4.40;;;2.30;99.90;;;;;;5083241;28;20043;-38
2022/03/31 04:27:45;;;;;;;5.53;4.40;;;2.30;99.90;;;;;;5063475;28;20495;-39
2022/03/31 04:30:12;;;;;;;7.43;4.80;;;2.30;99.90;;;;;;5081594;28;20052;-39
2022/03/31 04:32:38;;;;;;;11.13;5.18;;;2.30;99.90;;;;;;5082258;28;20052;-39
2022/03/31 04:35:05;;;;;;;12.65;5.20;;;2.30;99.90;;;;;;5082925;28;20054;-39
2022/03/31 04:37:30;;;;;;;8.13;4.97;;;2.30;99.90;;;;;;5082365;28;20097;-38
2022/03/31 04:39:56;;;;;;;6.97;4.47;;;2.40;99.90;;;;;;5062322;28;20093;-39
2022/03/31 04:42:22;;;;;;;6.55;4.93;;;2.40;99.90;;;;;;5061830;28;20523;-39
2022/03/31 04:44:48;;;;;;;8.10;5.07;;;2.40;99.90;;;;;;5073088;28;20044;-38
2022/03/31 04:47:14;;;;;;;7.25;5.05;;;2.40;99.90;;;;;;5082516;28;20063;-39
2022/03/31 04:49:40;;;;;;;4.85;4.35;;;2.50;99.90;;;;;;5084054;28;20784;-38
2022/03/31 04:52:06;;;;;;;6.60;5.03;;;2.50;99.90;;;;;;5072216;28;20063;-40
2022/03/31 04:54:32;;;;;;;7.07;5.57;;;2.50;99.90;;;;;;5081821;28;20052;-41
2022/03/31 04:56:58;;;;;;;5.55;4.90;;;2.50;99.90;;;;;;5080886;28;20416;-39
2022/03/31 04:59:23;;;;;;;7.13;5.75;;;2.50;99.90;;;;;;5080797;28;20090;-38
2022/03/31 05:01:49;;;;;;;6.55;5.35;;;2.40;99.90;;;;;;5063452;28;20109;-38
2022/03/31 05:04:16;;;;;;;10.13;7.05;;;2.40;99.90;;;;;;5083262;28;20052;-39
2022/03/31 05:06:42;;;;;;;9.15;7.35;;;2.30;99.90;;;;;;5079089;28;20159;-38
2022/03/31 05:09:08;;;;;;;8.00;6.43;;;2.30;99.90;;;;;;5081990;28;20050;-38
2022/03/31 05:11:34;;;;;;;7.82;6.53;;;2.40;99.90;;;;;;5081699;28;20552;-41
2022/03/31 05:14:00;;;;;;;9.05;7.60;;;2.40;99.90;;;;;;5076680;28;20087;-38
2022/03/31 05:16:25;;;;;;;9.55;8.20;;;2.30;99.90;;;;;;5073539;28;20571;-39
2022/03/31 05:18:51;;;;;;;11.98;8.10;;;2.40;99.90;;;;;;5081210;28;20132;-39
2022/03/31 05:21:17;;;;;;;10.60;9.20;;;2.30;99.90;;;;;;5077790;28;20052;-38
2022/03/31 05:23:42;;;;;;;10.30;9.15;;;2.30;99.90;;;;;;5077150;28;20086;-38
2022/03/31 05:26:08;;;;;;;10.25;9.15;;;2.30;99.90;;;;;;5080987;28;20410;-38
2022/03/31 05:28:34;;;;;;;12.05;10.07;;;2.30;99.90;;;;;;5077183;28;20079;-39
2022/03/31 05:30:59;;;;;;;12.48;10.77;;;2.30;99.90;;;;;;5077404;28;20504;-38
2022/03/31 05:33:25;;;;;;;12.65;10.75;;;2.20;99.90;;;;;;5078906;28;20536;-39
2022/03/31 05:35:51;;;;;;;12.27;9.80;;;2.20;99.90;;;;;;5058339;28;20052;-39
2022/03/31 05:38:17;;;;;;;13.52;10.88;;;2.20;99.90;;;;;;5081679;28;20044;-39
2022/03/31 05:40:42;;;;;;;14.10;11.25;;;2.20;99.90;;;;;;5079614;28;20043;-39
2022/03/31 05:43:08;;;;;;;13.35;11.23;;;2.30;99.90;;;;;;5073484;28;20076;-37
2022/03/31 05:45:34;;;;;;;13.40;9.68;;;2.30;99.90;;;;;;5079763;28;20052;-39
2022/03/31 05:47:59;;;;;;;10.75;8.95;;;2.30;99.90;;;;;;5081652;28;20044;-39
2022/03/31 05:50:25;;;;;;;8.52;7.55;;;2.20;99.90;;;;;;5080209;28;20059;-38
2022/03/31 05:52:51;;;;;;;9.93;7.90;;;2.30;99.90;;;;;;5080825;28;20490;-39
2022/03/31 05:55:19;;;;;;;9.20;7.07;;;2.30;99.90;;;;;;5064777;28;20051;-38
2022/03/31 05:57:45;;;;;;;18.48;8.00;;;2.30;99.90;;;;;;5063842;28;20060;-39
2022/03/31 06:00:17;;;;;;;8.02;6.00;;;2.30;99.90;;;;;;5082776;28;20045;-39
2022/03/31 06:02:42;;;;;;;20.90;8.00;;;2.40;99.90;;;;;;5063401;28;20058;-45
2022/03/31 06:05:10;;;;;;;69.70;10.50;;;2.30;99.90;;;;;;5078263;28;20043;-38
2022/03/31 06:07:37;;;;;;;62.75;9.60;;;2.40;99.90;;;;;;5079373;28;20575;-38
2022/03/31 06:10:03;;;;;;;23.63;7.13;;;2.40;99.90;;;;;;5080315;28;20048;-38
2022/03/31 06:12:28;;;;;;;190.90;18.83;;;2.40;99.90;;;;;;5079675;28;20052;-39
2022/03/31 06:14:54;;;;;;;42.97;9.63;;;2.40;99.90;;;;;;5076218;28;20099;-37
2022/03/31 06:17:20;;;;;;;22.25;7.60;;;2.50;99.90;;;;;;5079941;28;20493;-39
2022/03/31 06:19:46;;;;;;;72.88;11.68;;;2.50;99.90;;;;;;5080152;28;20446;-39
2022/03/31 06:22:11;;;;;;;15.75;8.35;;;2.50;99.90;;;;;;5081592;28;20055;-39
2022/03/31 06:24:37;;;;;;;58.90;10.07;;;2.50;99.90;;;;;;5057820;28;20060;-38
2022/03/31 06:27:06;;;;;;;38.40;10.23;;;2.60;99.90;;;;;;5060938;28;20443;-39
2022/03/31 06:29:32;;;;;;;9.25;7.43;;;2.60;99.90;;;;;;5056880;28;20406;-39
2022/03/31 06:31:58;;;;;;;8.80;7.90;;;2.60;99.90;;;;;;5081664;28;20084;-39
2022/03/31 06:34:24;;;;;;;9.70;8.65;;;2.70;99.90;;;;;;5076953;28;20440;-39
2022/03/31 06:36:50;;;;;;;8.50;7.05;;;2.70;99.90;;;;;;5061482;28;20155;-39
2022/03/31 06:39:16;;;;;;;8.68;7.40;;;2.70;99.90;;;;;;5078696;28;20504;-38
2022/03/31 06:41:42;;;;;;;7.93;7.05;;;2.70;99.90;;;;;;5075899;28;20040;-40
2022/03/31 06:44:12;;;;;;;8.93;6.55;;;2.80;99.90;;;;;;5066491;28;20055;-38
2022/03/31 06:46:40;;;;;;;7.88;6.90;;;2.80;99.90;;;;;;5058091;28;20080;-39
2022/03/31 06:49:06;;;;;;;8.35;7.18;;;2.80;99.90;;;;;;5077123;28;20048;-38
2022/03/31 06:51:32;;;;;;;7.68;6.38;;;2.90;99.90;;;;;;5069018;28;20090;-39
2022/03/31 06:53:59;;;;;;;8.40;6.72;;;3.00;99.90;;;;;;5079641;28;20043;-39
2022/03/31 06:56:29;;;;;;;7.65;6.15;;;3.00;99.90;;;;;;5081374;28;20135;-39
2022/03/31 06:58:55;;;;;;;9.40;6.70;;;3.00;99.90;;;;;;5074222;28;20486;-39
2022/03/31 07:01:21;;;;;;;7.47;6.75;;;3.00;99.90;;;;;;5080604;28;20109;-40
2022/03/31 07:03:47;;;;;;;7.32;6.30;;;3.10;99.90;;;;;;5061629;28;20456;-39
2022/03/31 07:06:14;;;;;;;7.15;6.45;;;3.20;99.90;;;;;;5082872;28;20044;-39
2022/03/31 07:08:41;;;;;;;8.38;7.53;;;3.20;99.90;;;;;;5083525;28;20144;-40
2022/03/31 07:11:09;;;;;;;9.88;7.63;;;3.20;99.90;;;;;;5048902;28;20490;-41
2022/03/31 07:13:36;;;;;;;8.05;7.15;;;3.30;99.90;;;;;;5058708;28;20135;-39
2022/03/31 07:16:02;;;;;;;8.40;7.47;;;3.30;99.90;;;;;;5057842;28;20530;-41
2022/03/31 07:18:28;;;;;;;7.20;6.50;;;3.20;99.90;;;;;;5057550;28;20458;-39
2022/03/31 07:20:54;;;;;;;7.88;6.78;;;3.30;99.90;;;;;;5057303;28;20511;-40
2022/03/31 07:23:25;;;;;;;7.72;7.03;;;3.30;99.90;;;;;;5056823;28;20407;-39
2022/03/31 07:25:59;;;;;;;7.03;6.38;;;3.30;99.90;;;;;;5036877;28;20136;-39
2022/03/31 07:28:25;;;;;;;7.45;6.68;;;3.30;99.90;;;;;;5020980;28;20037;-40
2022/03/31 07:30:53;;;;;;;8.48;7.43;;;3.30;99.90;;;;;;5053277;28;20470;-39
2022/03/31 07:33:22;;;;;;;7.22;6.47;;;3.30;99.90;;;;;;5056730;28;20642;-38
2022/03/31 07:35:51;;;;;;;7.97;7.18;;;3.40;99.90;;;;;;5020723;28;20688;-39
2022/03/31 07:38:18;;;;;;;8.05;7.25;;;3.50;99.90;;;;;;5058751;28;20506;-38
2022/03/31 07:40:45;;;;;;;8.52;7.72;;;3.40;99.90;;;;;;5056330;28;20482;-40
2022/03/31 07:43:11;;;;;;;7.38;6.68;;;3.40;99.90;;;;;;5049966;28;20041;-39
2022/03/31 07:45:38;;;;;;;27.27;8.20;;;3.50;99.90;;;;;;5054922;28;20477;-39
2022/03/31 07:48:05;;;;;;;6.32;5.72;;;3.50;99.90;;;;;;5059251;28;20117;-40
2022/03/31 07:50:33;;;;;;;6.50;5.93;;;3.50;99.90;;;;;;5058525;28;20402;-39
2022/03/31 07:52:59;;;;;;;7.28;6.57;;;3.40;99.90;;;;;;5041025;28;20052;-39
2022/03/31 07:55:24;;;;;;;9.27;6.95;;;3.50;99.90;;;;;;5059438;28;20040;-37
2022/03/31 07:57:51;;;;;;;6.45;5.90;;;3.50;99.90;;;;;;5057957;28;20052;-38
2022/03/31 08:00:18;;;;;;;8.30;7.50;;;3.50;99.90;;;;;;5039558;28;20052;-38
2022/03/31 08:02:47;;;;;;;7.95;7.25;;;3.50;99.90;;;;;;5038451;28;20061;-38
2022/03/31 08:05:18;;;;;;;7.63;6.93;;;3.50;99.90;;;;;;5057347;28;20109;-38
2022/03/31 08:07:44;;;;;;;10.43;7.00;;;3.60;99.90;;;;;;5057505;28;20059;-39
2022/03/31 08:10:10;;;;;;;23.35;6.95;;;3.50;99.90;;;;;;5063947;28;20063;-38
2022/03/31 08:12:36;;;;;;;7.07;6.43;;;3.50;99.90;;;;;;5061528;28;20251;-39
2022/03/31 08:15:08;;;;;;;7.47;6.78;;;3.50;99.90;;;;;;5079299;28;20048;-39
2022/03/31 08:17:33;;;;;;;7.70;6.88;;;3.60;99.90;;;;;;5084449;28;20044;-39
2022/03/31 08:20:00;;;;;;;7.68;6.97;;;3.60;99.90;;;;;;5059038;28;20101;-48
2022/03/31 08:22:26;;;;;;;7.47;6.78;;;3.50;99.90;;;;;;5079955;28;20112;-38
2022/03/31 08:24:53;;;;;;;7.35;6.65;;;3.50;99.90;;;;;;5075868;28;20052;-39
2022/03/31 08:27:19;;;;;;;8.07;7.25;;;3.50;99.90;;;;;;5058391;28;20056;-39
2022/03/31 08:29:45;;;;;;;7.78;7.07;;;3.50;99.90;;;;;;5042272;28;20040;-38
2022/03/31 08:32:12;;;;;;;8.45;7.68;;;3.50;99.90;;;;;;5076587;28;20419;-38
2022/03/31 08:34:38;;;;;;;7.65;6.95;;;3.50;99.90;;;;;;5058640;28;20129;-38
2022/03/31 08:37:04;;;;;;;8.15;7.35;;;3.40;99.90;;;;;;5058600;28;20052;-39
2022/03/31 08:39:30;;;;;;;8.65;7.85;;;3.50;99.90;;;;;;5057900;28;20135;-39
2022/03/31 08:41:56;;;;;;;8.40;7.60;;;3.50;99.90;;;;;;5078178;28;20054;-39
2022/03/31 08:44:23;;;;;;;9.57;8.68;;;3.50;99.90;;;;;;5065742;28;20048;-39
2022/03/31 08:46:49;;;;;;;10.10;9.18;;;3.50;99.90;;;;;;5055355;28;20095;-39
2022/03/31 08:49:16;;;;;;;10.05;8.95;;;3.50;99.90;;;;;;5078622;28;20455;-39
2022/03/31 08:51:45;;;;;;;9.13;8.32;;;3.50;99.90;;;;;;5083283;28;20044;-39
2022/03/31 08:54:11;;;;;;;9.85;8.95;;;3.50;99.90;;;;;;5063256;28;20066;-39
2022/03/31 08:56:38;;;;;;;9.23;8.32;;;3.40;99.90;;;;;;5061473;28;20442;-38
2022/03/31 08:59:04;;;;;;;8.68;7.88;;;3.40;99.90;;;;;;5061203;28;20566;-39
2022/03/31 09:01:32;;;;;;;8.48;7.68;;;3.40;99.90;;;;;;5082894;28;20047;-39
2022/03/31 09:03:58;;;;;;;8.10;7.30;;;3.50;99.90;;;;;;5063738;28;20116;-39
2022/03/31 09:06:28;;;;;;;8.20;7.40;;;3.50;99.90;;;;;;5082038;28;20533;-39
2022/03/31 09:09:03;;;;;;;9.20;8.30;;;3.50;99.90;;;;;;5048692;28;20052;-39
2022/03/31 09:11:30;;;;;;;8.38;7.47;;;3.50;99.90;;;;;;5077393;28;20052;-39
2022/03/31 09:14:01;;;;;;;9.77;8.15;;;3.50;99.90;;;;;;5081442;28;20052;-38
2022/03/31 09:16:34;;;;;;;8.57;7.78;;;3.50;99.90;;;;;;5081034;28;20167;-38
2022/03/31 09:19:10;;;;;;;;;;;3.50;99.90;;;;;;5083034;28;20052;-39
2022/03/31 09:21:54;;;;;;;7.85;7.10;;;3.60;99.90;;;;;;5063838;28;20766;-39
2022/03/31 09:24:22;;;;;;;7.13;6.43;;;3.60;99.90;;;;;;5063245;28;20047;-38
2022/03/31 09:26:49;;;;;;;8.32;7.53;;;3.50;99.90;;;;;;5076090;28;20052;-39
2022/03/31 09:29:17;;;;;;;8.55;7.75;;;3.60;99.90;;;;;;5077837;28;20048;-48
2022/03/31 09:31:43;;;;;;;8.30;7.50;;;3.40;99.90;;;;;;5081957;28;20087;-39
2022/03/31 09:34:09;;;;;;;8.48;7.68;;;3.40;99.90;;;;;;5083040;28;20131;-38
2022/03/31 09:36:39;;;;;;;9.95;8.88;;;3.40;99.90;;;;;;5081854;28;20086;-39
2022/03/31 09:39:13;;;;;;;10.77;9.68;;;3.40;99.90;;;;;;5075969;28;20040;-39
2022/03/31 09:41:41;;;;;;;8.77;7.88;;;3.40;99.90;;;;;;5062486;28;20058;-38
2022/03/31 09:44:19;;;;;;;8.70;7.80;;;3.40;99.90;;;;;;5067233;28;20052;-39
2022/03/31 09:46:46;;;;;;;9.65;8.73;;;3.40;99.90;;;;;;5058723;28;20052;-39
2022/03/31 09:49:16;;;;;;;7.35;6.65;;;3.50;99.90;;;;;;5059544;28;20052;-38
2022/03/31 09:51:44;;;;;;;8.18;7.38;;;3.50;99.90;;;;;;5052110;28;20101;-38
2022/03/31 09:54:10;;;;;;;8.98;8.07;;;3.50;99.90;;;;;;5081684;28;20048;-38
2022/03/31 09:56:38;;;;;;;9.43;8.23;;;3.50;99.90;;;;;;5082082;28;20040;-39
2022/03/31 09:59:07;;;;;;;7.88;7.07;;;3.40;99.90;;;;;;5082421;28;20100;-39
2022/03/31 10:01:33;;;;;;;8.85;8.05;;;3.40;99.90;;;;;;5081711;28;20058;-39
2022/03/31 10:03:59;;;;;;;8.43;7.53;;;3.30;99.90;;;;;;5080282;28;20077;-38
2022/03/31 10:06:26;;;;;;;7.45;6.28;;;3.40;99.90;;;;;;5081306;28;20040;-39
2022/03/31 10:08:53;;;;;;;7.90;7.10;;;3.30;99.90;;;;;;5062449;28;20067;-38
2022/03/31 10:11:20;;;;;;;7.45;6.68;;;3.30;99.90;;;;;;5062317;28;20232;-39
2022/03/31 10:14:00;;;;;;;7.45;6.68;;;3.40;99.90;;;;;;5080842;28;20519;-39
2022/03/31 10:16:37;;;;;;;8.13;7.13;;;3.40;99.90;;;;;;5083368;28;20108;-39
2022/03/31 10:19:03;;;;;;;8.07;7.07;;;3.40;99.90;;;;;;5082623;28;20051;-39
2022/03/31 10:21:32;;;;;;;11.43;6.80;;;3.50;99.90;;;;;;5060663;28;20070;-39
2022/03/31 10:26:43;;;;;;;7.75;6.60;;;3.50;99.90;;;;;;5080053;28;20121;-38
2022/03/31 10:29:16;;;;;;;7.97;7.15;;;3.50;99.90;;;;;;5079114;28;20071;-38
2022/03/31 10:31:44;;;;;;;8.18;7.20;;;3.50;99.90;;;;;;5062296;28;20067;-39
2022/03/31 10:34:11;;;;;;;7.57;6.57;;;3.50;99.90;;;;;;5060825;28;20088;-39
2022/03/31 10:36:47;;;;;;;9.90;8.18;;;3.50;99.90;;;;;;5062957;28;20060;-38
2022/03/31 10:39:20;;;;;;;7.68;6.85;;;3.50;99.90;;;;;;5060541;28;20118;-40
2022/03/31 10:42:05;;;;;;;6.72;6.00;;;3.40;99.90;;;;;;5081816;28;20499;-39
2022/03/31 10:44:31;;;;;;;7.35;6.50;;;3.40;99.90;;;;;;5068357;28;20534;-39
2022/03/31 10:47:05;;;;;;;6.80;6.10;;;3.40;99.90;;;;;;5061480;28;20060;-38
2022/03/31 10:49:31;;;;;;;6.10;5.43;;;3.40;99.90;;;;;;5068979;28;20060;-39
2022/03/31 10:51:58;;;;;;;6.45;5.85;;;3.40;99.90;;;;;;5061749;28;20365;-39
2022/03/31 10:54:33;;;;;;;6.55;5.85;;;3.30;99.90;;;;;;5080460;28;20554;-39
2022/03/31 10:57:12;;;;;;;6.28;5.68;;;3.30;99.90;;;;;;5082510;28;20404;-38
2022/03/31 10:59:39;;;;;;;6.95;6.25;;;3.20;99.90;;;;;;5082060;28;20138;-39
2022/03/31 11:02:22;;;;;;;6.60;5.95;;;3.20;99.90;;;;;;5080418;28;20044;-39
2022/03/31 11:04:58;;;;;;;6.15;5.55;;;3.10;99.90;;;;;;5078824;28;20040;-39
2022/03/31 11:07:25;;;;;;;6.85;5.93;;;3.00;99.90;;;;;;5070446;28;20140;-39
2022/03/31 11:10:03;;;;;;;7.20;6.50;;;3.00;99.90;;;;;;5079259;28;20052;-39
2022/03/31 11:12:30;;;;;;;5.80;5.30;;;3.00;99.90;;;;;;5060109;28;20063;-39
2022/03/31 11:15:00;;;;;;;7.03;6.30;;;3.00;99.90;;;;;;5079765;28;20055;-39
2022/03/31 11:17:28;;;;;;;6.82;6.13;;;3.00;99.90;;;;;;5079989;28;20056;-40
2022/03/31 11:19:55;;;;;;;6.57;5.82;;;3.00;99.90;;;;;;5059267;28;20039;-39
2022/03/31 11:22:27;;;;;;;6.68;6.07;;;3.00;99.90;;;;;;5073713;28;20594;-38
2022/03/31 11:24:54;;;;;;;8.35;7.25;;;3.00;99.90;;;;;;5060027;28;20152;-39
2022/03/31 11:27:37;;;;;;;8.00;6.50;;;2.90;99.90;;;;;;5080378;28;20502;-39
2022/03/31 11:30:12;;;;;;;6.82;6.13;;;2.90;99.90;;;;;;5068320;28;20397;-39
2022/03/31 11:32:40;;;;;;;7.78;6.30;;;2.80;99.90;;;;;;5079738;28;20442;-38
2022/03/31 11:35:15;;;;;;;7.32;5.93;;;2.70;99.90;;;;;;5078504;28;20066;-39
2022/03/31 11:37:45;;;;;;;5.60;5.10;;;2.70;99.90;;;;;;5055283;28;20118;-39
2022/03/31 11:40:17;;;;;;;6.90;5.53;;;2.70;99.90;;;;;;5069153;28;20147;-39
2022/03/31 11:42:44;;;;;;;6.90;6.20;;;2.60;99.90;;;;;;5053849;28;20057;-39
2022/03/31 11:45:10;;;;;;;6.80;5.60;;;2.50;99.90;;;;;;5055754;28;20055;-40
2022/03/31 11:47:35;;;;;;;5.60;5.10;;;2.40;99.90;;;;;;5036760;28;20057;-44
2022/03/31 11:50:01;;;;;;;6.13;5.53;;;2.30;99.90;;;;;;5035550;28;20495;-39
2022/03/31 11:52:31;;;;;;;6.72;6.13;;;2.20;99.90;;;;;;5059154;28;20119;-39
2022/03/31 11:55:00;;;;;;;6.15;5.55;;;2.20;99.90;;;;;;5038805;28;20119;-40
2022/03/31 11:57:28;;;;;;;8.00;6.40;;;2.10;99.90;;;;;;5054283;28;20040;-39
2022/03/31 11:59:55;;;;;;;6.40;5.80;;;2.10;99.90;;;;;;5053202;28;20119;-39
2022/03/31 12:02:21;;;;;;;6.20;5.60;;;2.00;99.90;;;;;;5049227;28;20049;-39
2022/03/31 12:04:49;;;;;;;7.03;6.30;;;1.90;99.90;;;;;;5031638;28;20060;-39
2022/03/31 12:07:19;;;;;;;7.93;6.38;;;1.80;99.90;;;;;;5052106;28;20135;-39
2022/03/31 12:09:46;;;;;;;8.88;5.93;;;1.70;99.90;;;;;;5054220;28;20041;-39
2022/03/31 12:12:13;;;;;;;6.25;5.63;;;1.60;99.90;;;;;;5029753;28;20080;-39
2022/03/31 12:14:51;;;;;;;6.30;5.57;;;1.60;99.90;;;;;;5056335;28;20526;-38
2022/03/31 12:17:18;;;;;;;9.43;8.43;;;1.60;99.90;;;;;;5047289;28;20473;-39
2022/03/31 12:19:44;;;;;;;9.18;6.97;;;1.50;99.90;;;;;;5046251;28;20048;-38
2022/03/31 12:22:10;;;;;;;7.65;5.95;;;1.50;99.90;;;;;;5049281;28;20557;-39
2022/03/31 12:24:49;;;;;;;8.32;7.22;;;1.50;99.90;;;;;;5053396;28;20074;-39
2022/03/31 12:27:17;;;;;;;7.38;6.68;;;1.40;99.90;;;;;;5031831;28;20592;-38
2022/03/31 12:29:43;;;;;;;9.65;6.65;;;1.40;99.90;;;;;;5035787;28;20590;-40
2022/03/31 12:32:14;;;;;;;7.97;6.82;;;1.30;99.90;;;;;;5051200;28;20111;-39
2022/03/31 12:34:53;;;;;;;6.78;5.72;;;1.30;99.90;;;;;;5039302;28;20573;-39
2022/03/31 12:37:28;;;;;;;11.93;8.15;;;1.30;99.90;;;;;;5049956;28;20053;-39
2022/03/31 12:39:57;;;;;;;6.38;5.60;;;1.20;99.90;;;;;;5041292;28;20060;-40
2022/03/31 12:42:23;;;;;;;6.75;6.15;;;1.20;99.90;;;;;;5052283;28;20055;-39
2022/03/31 12:44:49;;;;;;;7.22;6.53;;;1.20;99.90;;;;;;5054625;28;20048;-39
2022/03/31 12:47:22;;;;;;;7.88;6.55;;;1.20;99.90;;;;;;5052341;28;20459;-40
2022/03/31 12:49:48;;;;;;;;;;;1.10;99.90;;;;;;5035361;28;20045;-40
2022/03/31 12:52:17;;;;;;;7.22;6.18;;;1.10;99.90;;;;;;5056928;28;19927;-39
2022/03/31 12:54:56;;;;;;;8.75;6.47;;;1.10;99.90;;;;;;5054137;28;20047;-40
2022/03/31 12:57:29;;;;;;;6.60;5.90;;;1.00;99.90;;;;;;5054825;28;20044;-40
2022/03/31 13:00:13;;;;;;;7.32;6.30;;;1.00;99.90;;;;;;5035879;28;20064;-41
2022/03/31 13:02:41;;;;;;;38.75;7.88;;;1.00;99.90;;;;;;5053959;28;20051;-40